createdAt,value
2022-10-13T00:01:43.528Z,11.69
2022-10-13T00:04:10.397Z,11.69
2022-10-13T00:06:36.743Z,11.67
2022-10-13T00:09:03.707Z,11.66
2022-10-13T00:11:30.831Z,11.70
2022-10-13T00:13:59.605Z,11.78
2022-10-13T00:16:27.012Z,11.82
2022-10-13T00:18:53.488Z,11.87
2022-10-13T00:21:23.610Z,11.98
2022-10-13T00:23:51.397Z,11.98
2022-10-13T00:26:18.115Z,11.99
2022-10-13T00:28:48.457Z,11.99
2022-10-13T00:31:30.902Z,11.98
2022-10-13T00:33:59.797Z,11.96
2022-10-13T00:36:28.983Z,11.98
2022-10-13T00:38:56.915Z,12.02
2022-10-13T00:41:23.255Z,12.05
2022-10-13T00:44:07.343Z,12.06
2022-10-13T00:46:36.897Z,12.04
2022-10-13T00:49:23.081Z,12.02
2022-10-13T00:51:50.601Z,12.03
2022-10-13T00:54:22.632Z,12.02
2022-10-13T00:56:51.376Z,12.01
2022-10-13T00:59:28.915Z,11.99
2022-10-13T01:01:57.720Z,11.98
2022-10-13T01:04:27.872Z,12.01
2022-10-13T01:06:55.671Z,12.06
2022-10-13T01:09:22.103Z,12.08
2022-10-13T01:11:55.320Z,12.08
2022-10-13T01:14:50.906Z,12.09
2022-10-13T01:17:51.090Z,12.12
2022-10-13T01:20:32.669Z,12.14
2022-10-13T01:23:17.364Z,12.16
2022-10-13T01:26:14.813Z,12.18
2022-10-13T01:28:59.964Z,12.19
2022-10-13T01:31:52.024Z,12.19
2022-10-13T01:34:38.539Z,12.21
2022-10-13T01:37:30.184Z,12.22
2022-10-13T01:40:17.739Z,12.22
2022-10-13T01:43:02.292Z,12.24
2022-10-13T01:45:35.580Z,12.25
2022-10-13T01:48:04.564Z,12.25
2022-10-13T01:50:32.801Z,12.25
2022-10-13T01:53:02.176Z,12.28
2022-10-13T01:55:29.683Z,12.31
2022-10-13T01:57:56.243Z,12.36
2022-10-13T02:00:22.889Z,12.37
2022-10-13T02:03:09.900Z,12.38
2022-10-13T02:05:51.587Z,12.40
2022-10-13T02:08:38.067Z,12.39
2022-10-13T02:11:15.601Z,12.36
2022-10-13T02:13:49.191Z,12.37
2022-10-13T02:16:16.231Z,12.39
2022-10-13T02:18:43.795Z,12.40
2022-10-13T02:21:10.521Z,12.41
2022-10-13T02:23:36.943Z,12.43
2022-10-13T02:26:03.809Z,12.44
2022-10-13T02:28:30.332Z,12.43
2022-10-13T02:30:56.836Z,12.43
2022-10-13T02:33:23.183Z,12.41
2022-10-13T02:35:49.699Z,12.40
2022-10-13T02:38:16.090Z,12.39
2022-10-13T02:40:42.483Z,12.39
2022-10-13T02:43:08.878Z,12.40
2022-10-13T02:45:35.253Z,12.44
2022-10-13T02:48:01.730Z,12.46
2022-10-13T02:50:28.286Z,12.48
2022-10-13T02:52:54.749Z,12.50
2022-10-13T02:55:21.315Z,12.51
2022-10-13T02:57:47.671Z,12.53
2022-10-13T03:00:14.743Z,12.52
2022-10-13T03:02:42.134Z,12.53
2022-10-13T03:05:09.477Z,12.52
2022-10-13T03:07:36.058Z,12.51
2022-10-13T03:10:02.481Z,12.50
2022-10-13T03:12:28.839Z,12.52
2022-10-13T03:14:55.191Z,12.53
2022-10-13T03:17:21.652Z,12.52
2022-10-13T03:19:48.265Z,12.53
2022-10-13T03:22:15.408Z,12.54
2022-10-13T03:24:42.459Z,12.56
2022-10-13T03:27:09.292Z,12.56
2022-10-13T03:29:35.683Z,12.57
2022-10-13T03:32:02.083Z,12.57
2022-10-13T03:34:28.447Z,12.56
2022-10-13T03:36:54.835Z,12.54
2022-10-13T03:39:22.063Z,12.52
2022-10-13T03:41:48.551Z,12.49
2022-10-13T03:44:14.898Z,12.48
2022-10-13T03:46:41.324Z,12.47
2022-10-13T03:49:07.739Z,12.44
2022-10-13T03:51:34.233Z,12.42
2022-10-13T03:54:00.588Z,12.36
2022-10-13T03:56:28.021Z,12.32
2022-10-13T03:58:59.688Z,12.25
2022-10-13T04:01:29.048Z,12.22
2022-10-13T04:03:56.682Z,12.17
2022-10-13T04:06:25.028Z,12.12
2022-10-13T04:08:52.272Z,12.13
2022-10-13T04:11:19.743Z,12.14
2022-10-13T04:13:46.381Z,12.16
2022-10-13T04:16:24.969Z,12.18
2022-10-13T04:19:00.458Z,12.20
2022-10-13T04:21:28.675Z,12.21
2022-10-13T04:23:57.216Z,12.23
2022-10-13T04:26:25.789Z,12.27
2022-10-13T04:28:55.360Z,12.30
2022-10-13T04:31:23.296Z,12.33
2022-10-13T04:33:50.246Z,12.35
2022-10-13T04:36:18.283Z,12.35
2022-10-13T04:38:44.807Z,12.37
2022-10-13T04:41:12.552Z,12.35
2022-10-13T04:43:38.916Z,12.32
2022-10-13T04:46:14.015Z,12.30
2022-10-13T04:48:41.022Z,12.28
2022-10-13T04:51:10.166Z,12.24
2022-10-13T04:53:36.775Z,12.21
2022-10-13T04:56:23.104Z,12.17
2022-10-13T04:58:49.737Z,12.14
2022-10-13T05:01:21.695Z,12.12
2022-10-13T05:03:53.456Z,12.08
2022-10-13T05:06:27.091Z,12.02
2022-10-13T05:08:53.535Z,11.99
2022-10-13T05:11:20.501Z,11.97
2022-10-13T05:13:48.161Z,11.94
2022-10-13T05:16:16.733Z,11.93
2022-10-13T05:18:43.440Z,11.94
2022-10-13T05:21:12.788Z,11.93
2022-10-13T05:23:40.331Z,11.95
2022-10-13T05:26:09.759Z,11.95
2022-10-13T05:28:36.504Z,11.98
2022-10-13T05:31:21.335Z,12.00
2022-10-13T05:33:48.581Z,12.05
2022-10-13T05:36:17.471Z,12.09
2022-10-13T05:38:43.908Z,12.13
2022-10-13T05:41:12.776Z,12.17
2022-10-13T05:43:40.941Z,12.20
2022-10-13T05:46:08.017Z,12.23
2022-10-13T05:48:34.982Z,12.25
2022-10-13T05:51:05.303Z,12.26
2022-10-13T05:53:34.809Z,12.29
2022-10-13T05:56:07.006Z,12.31
2022-10-13T05:58:43.141Z,12.33
2022-10-13T06:01:13.405Z,12.36
2022-10-13T06:03:42.088Z,12.38
2022-10-13T06:06:09.503Z,12.40
2022-10-13T06:08:36.990Z,12.42
2022-10-13T06:11:05.419Z,12.42
2022-10-13T06:13:31.808Z,12.44
2022-10-13T06:15:58.155Z,12.44
2022-10-13T06:18:24.843Z,12.47
2022-10-13T06:20:51.300Z,12.51
2022-10-13T06:23:17.728Z,12.52
2022-10-13T06:25:51.787Z,12.53
2022-10-13T06:28:19.199Z,12.56
2022-10-13T06:30:54.635Z,12.60
2022-10-13T06:33:22.125Z,12.63
2022-10-13T06:35:48.717Z,12.63
2022-10-13T06:38:15.059Z,12.64
2022-10-13T06:40:42.128Z,12.63
2022-10-13T06:43:09.597Z,12.64
2022-10-13T06:45:39.362Z,12.66
2022-10-13T06:48:05.928Z,12.68
2022-10-13T06:50:32.334Z,12.71
2022-10-13T06:52:58.692Z,12.70
2022-10-13T06:55:25.063Z,12.73
2022-10-13T06:57:52.383Z,12.76
2022-10-13T07:00:18.927Z,12.77
2022-10-13T07:02:45.385Z,12.79
2022-10-13T07:05:11.934Z,12.80
2022-10-13T07:07:38.271Z,12.81
2022-10-13T07:10:04.947Z,12.84
2022-10-13T07:12:31.296Z,12.87
2022-10-13T07:14:57.634Z,12.90
2022-10-13T07:17:24.174Z,12.94
2022-10-13T07:19:51.355Z,12.96
2022-10-13T07:22:17.868Z,12.99
2022-10-13T07:24:44.774Z,13.04
2022-10-13T07:27:11.168Z,13.05
2022-10-13T07:29:37.608Z,13.07
2022-10-13T07:32:04.172Z,13.10
2022-10-13T07:34:30.569Z,13.11
2022-10-13T07:36:56.943Z,13.14
2022-10-13T07:39:23.371Z,13.18
2022-10-13T07:41:51.320Z,13.23
2022-10-13T07:44:18.052Z,13.27
2022-10-13T07:46:44.718Z,13.33
2022-10-13T07:49:15.251Z,13.37
2022-10-13T07:51:43.086Z,13.41
2022-10-13T07:54:10.388Z,13.47
2022-10-13T07:56:37.438Z,13.51
2022-10-13T07:59:05.453Z,13.58
2022-10-13T08:01:32.127Z,13.65
2022-10-13T08:03:59.200Z,13.71
2022-10-13T08:06:27.468Z,13.75
2022-10-13T08:08:53.859Z,13.77
2022-10-13T08:11:20.338Z,13.82
2022-10-13T08:13:51.226Z,13.85
2022-10-13T08:16:18.188Z,13.85
2022-10-13T08:18:45.978Z,13.87
2022-10-13T08:21:57.457Z,13.88
2022-10-13T08:24:04.636Z,13.87
2022-10-13T08:26:32.393Z,13.87
2022-10-13T08:31:45.495Z,13.88
2022-10-13T08:34:12.575Z,13.89
2022-10-13T08:36:39.584Z,13.93
2022-10-13T08:39:06.453Z,13.98
2022-10-13T08:41:37.524Z,14.03
2022-10-13T08:44:59.230Z,14.09
2022-10-13T08:47:06.939Z,14.19
2022-10-13T08:49:33.870Z,14.31
2022-10-13T08:52:05.298Z,14.40
2022-10-13T08:54:33.281Z,14.46
2022-10-13T08:59:27.384Z,14.55
2022-10-13T09:01:55.472Z,14.65
2022-10-13T09:04:36.074Z,14.72
2022-10-13T09:07:07.031Z,14.79
2022-10-13T09:09:33.505Z,14.86
2022-10-13T09:12:00.332Z,14.95
2022-10-13T09:14:31.576Z,15.02
2022-10-13T09:17:16.307Z,15.06
2022-10-13T09:19:43.801Z,15.08
2022-10-13T09:22:22.237Z,15.10
2022-10-13T09:25:07.805Z,15.18
2022-10-13T09:27:59.177Z,15.23
2022-10-13T09:31:28.487Z,15.25
2022-10-13T09:34:00.923Z,15.22
2022-10-13T09:36:28.464Z,15.25
2022-10-13T09:39:16.437Z,15.28
2022-10-13T09:41:43.829Z,15.24
2022-10-13T09:44:17.504Z,15.24
2022-10-13T09:46:59.184Z,15.20
2022-10-13T09:49:40.270Z,15.19
2022-10-13T09:52:29.812Z,15.21
2022-10-13T09:55:00.930Z,15.25
2022-10-13T09:57:39.471Z,15.26
2022-10-13T10:00:15.302Z,15.31
2022-10-13T10:03:05.489Z,15.40
2022-10-13T10:05:44.936Z,15.44
2022-10-13T10:08:33.954Z,15.51
2022-10-13T10:11:12.479Z,15.55
2022-10-13T10:13:38.963Z,15.62
2022-10-13T10:16:20.505Z,15.65
2022-10-13T10:18:57.743Z,15.63
2022-10-13T10:21:27.981Z,15.59
2022-10-13T10:23:58.283Z,15.59
2022-10-13T10:26:47.087Z,15.56
2022-10-13T10:29:26.187Z,15.48
2022-10-13T10:32:11.211Z,15.44
2022-10-13T10:34:46.552Z,15.41
2022-10-13T10:37:40.549Z,15.39
2022-10-13T10:40:38.021Z,15.42
2022-10-13T10:43:13.685Z,15.41
2022-10-13T10:45:40.728Z,15.42
2022-10-13T10:48:32.961Z,15.43
2022-10-13T10:51:01.092Z,15.43
2022-10-13T10:53:40.426Z,15.43
2022-10-13T10:56:15.538Z,15.44
2022-10-13T10:59:05.115Z,15.46
2022-10-13T11:01:45.161Z,15.53
2022-10-13T11:04:20.827Z,15.63
2022-10-13T11:06:47.572Z,15.70
2022-10-13T11:09:14.023Z,15.75
2022-10-13T11:11:42.223Z,15.81
2022-10-13T11:14:08.709Z,15.83
2022-10-13T11:16:40.242Z,15.82
2022-10-13T11:19:29.710Z,15.80
2022-10-13T11:21:59.011Z,15.81
2022-10-13T11:24:39.244Z,15.83
2022-10-13T11:27:17.579Z,15.88
2022-10-13T11:29:47.257Z,15.98
2022-10-13T11:32:36.765Z,16.04
2022-10-13T11:35:05.912Z,16.07
2022-10-13T11:37:51.733Z,16.07
2022-10-13T11:40:35.122Z,16.06
2022-10-13T11:43:09.815Z,16.01
2022-10-13T11:46:14.677Z,16.04
2022-10-13T11:49:02.786Z,16.07
2022-10-13T11:51:38.550Z,16.12
2022-10-13T11:54:34.561Z,16.19
2022-10-13T11:57:01.419Z,16.23
2022-10-13T11:59:33.687Z,16.22
2022-10-13T12:02:14.517Z,16.16
2022-10-13T12:04:46.806Z,16.14
2022-10-13T12:07:15.741Z,16.20
2022-10-13T12:09:51.563Z,16.33
2022-10-13T12:12:24.535Z,16.38
2022-10-13T12:14:54.456Z,16.43
2022-10-13T12:17:31.797Z,16.42
2022-10-13T12:20:20.334Z,16.44
2022-10-13T12:22:51.170Z,16.49
2022-10-13T12:25:19.639Z,16.55
2022-10-13T12:27:50.091Z,16.59
2022-10-13T12:30:25.290Z,16.64
2022-10-13T12:32:54.353Z,16.72
2022-10-13T12:35:32.513Z,16.90
2022-10-13T12:38:13.173Z,17.12
2022-10-13T12:40:40.694Z,17.37
2022-10-13T12:43:07.219Z,17.73
2022-10-13T12:45:34.880Z,18.07
2022-10-13T12:48:01.404Z,18.25
2022-10-13T12:50:36.899Z,18.36
2022-10-13T12:53:12.019Z,18.31
2022-10-13T12:55:55.083Z,18.20
2022-10-13T12:58:28.965Z,18.08
2022-10-13T13:00:58.126Z,17.99
2022-10-13T13:03:29.090Z,17.87
2022-10-13T13:06:31.859Z,17.71
2022-10-13T13:09:15.672Z,17.68
2022-10-13T13:11:42.007Z,17.71
2022-10-13T13:14:35.565Z,17.72
2022-10-13T13:17:09.290Z,17.68
2022-10-13T13:19:36.618Z,17.68
2022-10-13T13:22:05.687Z,17.55
2022-10-13T13:24:40.114Z,17.46
2022-10-13T13:27:19.916Z,17.38
2022-10-13T13:29:46.943Z,17.31
2022-10-13T13:32:19.834Z,17.22
2022-10-13T13:34:46.898Z,17.16
2022-10-13T13:37:24.590Z,17.10
2022-10-13T13:39:51.080Z,17.04
2022-10-13T13:42:17.749Z,17.02
2022-10-13T13:44:44.171Z,17.02
2022-10-13T13:47:16.953Z,17.00
2022-10-13T13:49:43.648Z,16.98
2022-10-13T13:52:10.071Z,17.01
2022-10-13T13:54:36.540Z,17.06
2022-10-13T13:57:03.188Z,17.02
2022-10-13T13:59:29.580Z,17.05
2022-10-13T14:01:56.062Z,17.05
2022-10-13T14:04:22.606Z,17.02
2022-10-13T14:06:49.020Z,16.99
2022-10-13T14:09:15.442Z,16.92
2022-10-13T14:11:41.823Z,16.87
2022-10-13T14:14:08.230Z,16.85
2022-10-13T14:16:34.611Z,16.82
2022-10-13T14:19:01.060Z,16.78
2022-10-13T14:21:27.462Z,16.76
2022-10-13T14:23:53.875Z,16.75
2022-10-13T14:26:20.332Z,16.75
2022-10-13T14:28:46.984Z,16.74
2022-10-13T14:31:13.504Z,16.74
2022-10-13T14:33:39.892Z,16.73
2022-10-13T14:36:07.417Z,16.75
2022-10-13T14:38:34.524Z,16.74
2022-10-13T14:41:02.460Z,16.71
2022-10-13T14:43:29.419Z,16.68
2022-10-13T14:45:56.220Z,16.62
2022-10-13T14:48:24.760Z,16.57
2022-10-13T14:50:52.692Z,16.50
2022-10-13T14:53:19.132Z,16.45
2022-10-13T14:55:45.543Z,16.40
2022-10-13T14:58:12.271Z,16.39
2022-10-13T15:00:38.887Z,16.35
2022-10-13T15:03:05.299Z,16.30
2022-10-13T15:05:31.872Z,16.16
2022-10-13T15:07:58.284Z,15.98
2022-10-13T15:10:24.778Z,15.88
2022-10-13T15:12:51.188Z,15.77
2022-10-13T15:15:17.703Z,15.67
2022-10-13T15:17:44.076Z,15.64
2022-10-13T15:20:10.771Z,15.62
2022-10-13T15:22:37.405Z,15.60
2022-10-13T15:25:07.758Z,15.62
2022-10-13T15:27:39.310Z,15.64
2022-10-13T15:30:08.839Z,15.63
2022-10-13T15:32:35.326Z,15.61
2022-10-13T15:35:02.020Z,15.59
2022-10-13T15:37:28.377Z,15.58
2022-10-13T15:39:57.398Z,15.53
2022-10-13T15:42:24.304Z,15.50
2022-10-13T15:45:08.781Z,15.48
2022-10-13T15:47:36.419Z,15.47
2022-10-13T15:50:03.648Z,15.42
2022-10-13T15:52:34.690Z,15.39
2022-10-13T15:55:02.025Z,15.37
2022-10-13T15:57:28.505Z,15.34
2022-10-13T15:59:54.884Z,15.33
2022-10-13T16:02:23.209Z,15.31
2022-10-13T16:04:50.640Z,15.29
2022-10-13T16:07:18.407Z,15.24
2022-10-13T16:09:45.259Z,15.21
2022-10-13T16:12:11.693Z,15.16
2022-10-13T16:14:38.095Z,15.16
2022-10-13T16:17:04.466Z,15.16
2022-10-13T16:19:30.992Z,15.12
2022-10-13T16:21:57.435Z,15.13
2022-10-13T16:24:23.884Z,15.09
2022-10-13T16:26:50.292Z,15.07
2022-10-13T16:29:16.912Z,15.00
2022-10-13T16:31:43.358Z,14.97
2022-10-13T16:34:10.609Z,14.95
2022-10-13T16:36:37.136Z,14.96
2022-10-13T16:39:03.607Z,14.95
2022-10-13T16:41:30.017Z,14.93
2022-10-13T16:43:56.597Z,14.90
2022-10-13T16:46:23.703Z,14.89
2022-10-13T16:48:50.188Z,14.85
2022-10-13T16:51:22.529Z,14.87
2022-10-13T16:54:03.908Z,14.88
2022-10-13T16:56:31.793Z,14.87
2022-10-13T16:59:04.548Z,14.84
2022-10-13T17:01:32.396Z,14.82
2022-10-13T17:03:59.718Z,14.81
2022-10-13T17:06:28.465Z,14.77
2022-10-13T17:08:57.743Z,14.75
2022-10-13T17:11:30.373Z,14.73
2022-10-13T17:13:58.038Z,14.72
2022-10-13T17:16:25.284Z,14.71
2022-10-13T17:18:51.755Z,14.69
2022-10-13T17:21:18.337Z,14.69
2022-10-13T17:23:48.678Z,14.67
2022-10-13T17:26:17.438Z,14.65
2022-10-13T17:28:44.548Z,14.62
2022-10-13T17:31:20.651Z,14.62
2022-10-13T17:33:48.442Z,14.59
2022-10-13T17:36:16.726Z,14.58
2022-10-13T17:38:43.762Z,14.56
2022-10-13T17:41:11.184Z,14.57
2022-10-13T17:43:39.011Z,14.56
2022-10-13T17:46:35.026Z,14.56
2022-10-13T17:48:59.396Z,14.56
2022-10-13T17:51:25.971Z,14.53
2022-10-13T17:53:52.881Z,14.53
2022-10-13T17:56:21.881Z,14.53
2022-10-13T17:58:50.274Z,14.52
2022-10-13T18:01:19.714Z,14.48
2022-10-13T18:03:49.814Z,14.47
2022-10-13T18:06:17.020Z,14.49
2022-10-13T18:08:43.839Z,14.48
2022-10-13T18:11:16.902Z,14.48
2022-10-13T18:13:44.999Z,14.45
2022-10-13T18:16:22.213Z,14.46
2022-10-13T18:18:50.054Z,14.44
2022-10-13T18:21:19.542Z,14.42
2022-10-13T18:23:46.281Z,14.41
2022-10-13T18:26:15.258Z,14.42
2022-10-13T18:28:43.594Z,14.42
2022-10-13T18:31:13.876Z,14.43
2022-10-13T18:33:40.902Z,14.42
2022-10-13T18:36:15.153Z,14.40
2022-10-13T18:38:41.718Z,14.41
2022-10-13T18:41:08.252Z,14.40
2022-10-13T18:43:34.819Z,14.39
2022-10-13T18:46:02.379Z,14.38
2022-10-13T18:48:28.893Z,14.38
2022-10-13T18:50:55.323Z,14.37
2022-10-13T18:53:21.799Z,14.37
2022-10-13T18:55:48.405Z,14.35
2022-10-13T18:58:14.856Z,14.38
2022-10-13T19:00:41.290Z,14.36
2022-10-13T19:03:08.227Z,14.36
2022-10-13T19:05:39.317Z,14.34
2022-10-13T19:08:09.317Z,14.33
2022-10-13T19:10:36.448Z,14.30
2022-10-13T19:13:03.650Z,14.28
2022-10-13T19:15:30.206Z,14.26
2022-10-13T19:17:56.603Z,14.25
2022-10-13T19:20:23.032Z,14.25
2022-10-13T19:22:49.474Z,14.24
2022-10-13T19:25:15.868Z,14.21
2022-10-13T19:27:42.279Z,14.19
2022-10-13T19:30:09.381Z,14.20
2022-10-13T19:32:38.591Z,14.19
2022-10-13T19:35:05.672Z,14.20
2022-10-13T19:37:32.186Z,14.21
2022-10-13T19:39:58.580Z,14.19
2022-10-13T19:42:25.009Z,14.19
2022-10-13T19:44:51.379Z,14.18
2022-10-13T19:47:18.115Z,14.19
2022-10-13T19:49:44.735Z,14.18
2022-10-13T19:52:11.134Z,14.18
2022-10-13T19:54:37.506Z,14.18
2022-10-13T19:57:03.909Z,14.19
2022-10-13T19:59:30.394Z,14.16
2022-10-13T20:01:57.412Z,14.13
2022-10-13T20:04:24.789Z,14.16
2022-10-13T20:06:51.405Z,14.15
2022-10-13T20:09:19.423Z,14.14
2022-10-13T20:11:48.161Z,14.13
2022-10-13T20:14:14.913Z,14.15
2022-10-13T20:16:41.817Z,14.12
2022-10-13T20:19:08.252Z,14.10
2022-10-13T20:21:34.636Z,14.09
2022-10-13T20:24:01.034Z,14.06
2022-10-13T20:26:27.480Z,14.05
2022-10-13T20:28:54.906Z,14.05
2022-10-13T20:31:22.704Z,14.04
2022-10-13T20:33:54.140Z,14.03
2022-10-13T20:36:20.804Z,14.00
2022-10-13T20:38:49.099Z,13.98
2022-10-13T20:41:27.433Z,13.95
2022-10-13T20:43:56.204Z,13.93
2022-10-13T20:46:26.045Z,13.92
2022-10-13T20:51:40.712Z,13.92
2022-10-13T20:54:07.699Z,13.93
2022-10-13T20:56:34.073Z,13.93
2022-10-13T20:59:24.050Z,13.91
2022-10-13T21:01:50.429Z,13.90
2022-10-13T21:04:16.833Z,13.87
2022-10-13T21:06:43.403Z,13.87
2022-10-13T21:09:09.943Z,13.82
2022-10-13T21:11:36.510Z,13.82
2022-10-13T21:14:06.676Z,13.79
2022-10-13T21:16:33.219Z,13.77
2022-10-13T21:18:59.677Z,13.74
2022-10-13T21:21:31.323Z,13.72
2022-10-13T21:24:04.390Z,13.69
2022-10-13T21:26:32.274Z,13.68
2022-10-13T21:28:59.383Z,13.64
2022-10-13T21:31:26.450Z,13.65
2022-10-13T21:33:53.577Z,13.62
2022-10-13T21:36:31.669Z,13.61
2022-10-13T21:39:00.403Z,13.59
2022-10-13T21:41:28.010Z,13.60
2022-10-13T21:43:54.779Z,13.59
2022-10-13T21:46:25.841Z,13.58
2022-10-13T21:48:54.138Z,13.57
2022-10-13T21:51:25.845Z,13.57
2022-10-13T21:53:54.871Z,13.57
2022-10-13T21:56:22.229Z,13.56
2022-10-13T21:58:49.231Z,13.57
2022-10-13T22:01:19.825Z,13.55
2022-10-13T22:03:47.130Z,13.55
2022-10-13T22:06:19.287Z,13.55
2022-10-13T22:08:49.435Z,13.55
2022-10-13T22:11:16.725Z,13.54
2022-10-13T22:13:43.076Z,13.53
2022-10-13T22:16:12.707Z,13.54
2022-10-13T22:18:39.107Z,13.54
2022-10-13T22:21:21.119Z,13.54
2022-10-13T22:23:48.173Z,13.53
2022-10-13T22:26:17.044Z,13.54
2022-10-13T22:28:44.159Z,13.53
2022-10-13T22:31:13.872Z,13.54
2022-10-13T22:33:41.912Z,13.54
2022-10-13T22:36:10.651Z,13.54
2022-10-13T22:38:37.088Z,13.53
2022-10-13T22:41:05.828Z,13.52
2022-10-13T22:43:32.749Z,13.53
2022-10-13T22:45:59.240Z,13.54
2022-10-13T22:48:25.619Z,13.53
2022-10-13T22:50:52.188Z,13.54
2022-10-13T22:53:18.860Z,13.54
2022-10-13T22:55:45.501Z,13.54
2022-10-13T22:58:12.062Z,13.53
2022-10-13T23:00:39.171Z,13.50
2022-10-13T23:03:06.217Z,13.49
2022-10-13T23:05:32.701Z,13.45
2022-10-13T23:07:59.116Z,13.41
2022-10-13T23:10:25.677Z,13.36
2022-10-13T23:12:52.074Z,13.36
2022-10-13T23:15:18.435Z,13.38
2022-10-13T23:17:45.217Z,13.39
2022-10-13T23:20:12.050Z,13.40
2022-10-13T23:22:38.436Z,13.39
2022-10-13T23:25:05.101Z,13.37
2022-10-13T23:27:31.456Z,13.37
2022-10-13T23:29:57.823Z,13.35
2022-10-13T23:32:24.243Z,13.35
2022-10-13T23:34:50.729Z,13.34
2022-10-13T23:37:17.653Z,13.33
2022-10-13T23:39:43.984Z,13.33
2022-10-13T23:42:10.390Z,13.34
2022-10-13T23:44:36.704Z,13.34
2022-10-13T23:47:03.909Z,13.33
2022-10-13T23:49:30.255Z,13.33
2022-10-13T23:51:56.676Z,13.32
2022-10-13T23:54:23.019Z,13.31
2022-10-13T23:56:49.379Z,13.31
2022-10-13T23:59:15.763Z,13.31
